Time;durP1;ratioP1;P1;durP2;ratioP2;P2;SDS_P1;SDS_P2;PMS_P1;PMS_P2;Temp;Humidity;BMP_temperature;BMP_pressure;BME280_temperature;BME280_humidity;BME280_pressure;Samples;Min_cycle;Max_cycle;Signal;HPM_P1;HPM_P2
2022/06/24 00:01:19;;;;;;;7.10;1.90;;;;;;;23.22;44.31;99091.59;10429729;28;20135;-84
2022/06/24 00:06:21;;;;;;;9.68;2.05;;;;;;;23.23;44.15;99085.22;10411181;28;20127;-84
2022/06/24 00:11:28;;;;;;;7.15;2.00;;;;;;;23.19;44.27;99090.13;10413003;28;20053;-85
2022/06/24 00:16:59;;;;;;;9.82;2.17;;;;;;;23.03;44.36;99082.38;10413537;28;20045;-84
2022/06/24 00:22:57;;;;;;;7.90;2.00;;;;;;;22.98;44.47;99095.50;10417904;28;20087;-83
2022/06/24 00:28:10;;;;;;;8.93;2.30;;;;;;;23.01;44.31;99107.59;10398782;28;20146;-83
2022/06/24 00:33:46;;;;;;;6.90;1.80;;;;;;;22.92;44.42;99116.75;10433233;28;20049;-84
2022/06/24 00:39:06;;;;;;;8.93;2.20;;;;;;;22.86;44.48;99128.16;10418947;28;20061;-83
2022/06/24 00:44:11;;;;;;;7.68;1.85;;;;;;;22.80;44.91;99118.25;10420061;28;20558;-85
2022/06/24 00:49:23;;;;;;;6.00;2.00;;;;;;;22.63;45.55;99129.13;10421414;28;20398;-84
2022/06/24 00:54:25;;;;;;;8.93;2.10;;;;;;;22.52;45.63;99131.44;10421393;28;20095;-84
2022/06/24 00:59:27;;;;;;;8.40;2.10;;;;;;;22.62;45.69;99129.28;10420149;28;20052;-84
2022/06/24 01:04:33;;;;;;;6.00;2.03;;;;;;;22.57;45.58;99143.22;10421469;28;20053;-84
2022/06/24 01:09:35;;;;;;;9.18;2.13;;;;;;;22.48;45.64;99176.28;10420540;28;20061;-84
2022/06/24 01:14:37;;;;;;;6.20;2.30;;;;;;;22.41;45.69;99156.72;10421352;28;20894;-83
2022/06/24 01:19:45;;;;;;;7.65;1.80;;;;;;;22.40;45.87;99175.56;10420481;28;20118;-84
2022/06/24 01:24:46;;;;;;;9.73;2.15;;;;;;;22.31;46.02;99174.03;10419384;28;20287;-84
2022/06/24 01:29:49;;;;;;;6.72;1.58;;;;;;;22.16;46.42;99159.88;10419861;28;20095;-84
2022/06/24 01:34:51;;;;;;;5.50;1.60;;;;;;;22.10;46.86;99140.13;10419949;28;20544;-84
2022/06/24 01:39:52;;;;;;;7.43;1.70;;;;;;;22.18;46.51;99131.22;10436574;28;20123;-85
2022/06/24 01:44:54;;;;;;;6.30;1.65;;;;;;;22.01;47.09;99161.66;10436925;28;20681;-84
2022/06/24 01:49:56;;;;;;;8.07;1.75;;;;;;;21.87;49.53;99150.00;10437588;28;20048;-83
2022/06/24 01:54:58;;;;;;;4.70;1.60;;;;;;;21.81;52.10;99129.44;10419658;28;20049;-83
2022/06/24 02:00:00;;;;;;;7.70;1.80;;;;;;;21.62;52.99;99135.28;10419071;28;20096;-83
2022/06/24 02:05:01;;;;;;;7.78;1.55;;;;;;;21.44;53.04;99132.09;10423844;28;20079;-82
2022/06/24 02:15:24;;;;;;;7.20;1.52;;;;;;;20.97;54.65;99142.91;10443070;28;20572;-82
2022/06/24 02:20:26;;;;;;;6.72;1.50;;;;;;;20.59;55.24;99163.25;10417613;28;20130;-82
2022/06/24 02:25:28;;;;;;;4.90;1.52;;;;;;;20.47;56.19;99161.13;10416795;28;20056;-82
2022/06/24 02:30:29;;;;;;;5.60;1.67;;;;;;;20.20;57.23;99149.09;10424023;28;20075;-82
2022/06/24 02:35:31;;;;;;;5.85;1.58;;;;;;;20.31;57.95;99135.47;10423176;28;20053;-82
2022/06/24 02:40:45;;;;;;;4.88;1.55;;;;;;;20.19;58.43;99128.88;10423272;28;20057;-81
2022/06/24 02:45:48;;;;;;;6.25;1.70;;;;;;;20.16;59.50;99111.47;10424222;28;20052;-81
2022/06/24 02:50:53;;;;;;;4.05;1.60;;;;;;;20.22;59.97;99097.50;10422645;28;20060;-81
2022/06/24 02:56:00;;;;;;;5.15;1.50;;;;;;;20.18;60.46;99108.63;10421744;28;20049;-81
2022/06/24 03:01:03;;;;;;;8.68;1.80;;;;;;;20.26;59.56;99116.56;10438644;28;20049;-81
2022/06/24 03:06:06;;;;;;;8.20;1.90;;;;;;;20.19;60.22;99112.94;10417378;28;20045;-81
2022/06/24 03:11:08;;;;;;;5.18;1.73;;;;;;;19.85;60.39;99104.41;10432394;28;20053;-80
2022/06/24 03:16:09;;;;;;;5.45;1.70;;;;;;;19.82;61.43;99110.09;10416270;28;20076;-81
2022/06/24 03:21:11;;;;;;;5.32;1.70;;;;;;;19.62;61.07;99096.34;10434195;28;20060;-81
2022/06/24 03:26:13;;;;;;;5.60;1.83;;;;;;;19.46;61.01;99102.50;10415234;28;20098;-81
2022/06/24 03:31:15;;;;;;;9.02;2.10;;;;;;;19.38;61.20;99109.63;10415487;28;20779;-81
2022/06/24 03:36:17;;;;;;;5.60;1.77;;;;;;;19.11;61.93;99108.16;10414941;28;20052;-81
2022/06/24 03:41:18;;;;;;;9.02;1.90;;;;;;;19.04;62.99;99116.91;10432690;28;20081;-81
2022/06/24 03:46:20;;;;;;;6.70;1.83;;;;;;;19.05;63.67;99105.34;10433716;28;20080;-80
2022/06/24 03:51:22;;;;;;;6.15;2.17;;;;;;;19.22;63.00;99096.38;10435584;28;20047;-81
2022/06/24 03:56:24;;;;;;;7.32;2.17;;;;;;;19.24;62.94;99084.63;10442493;28;20063;-81
2022/06/24 04:01:25;;;;;;;6.80;2.03;;;;;;;19.23;62.11;99096.22;10423901;28;20080;-81
2022/06/24 04:06:27;;;;;;;9.90;1.90;;;;;;;19.25;62.16;99091.59;10419560;28;20056;-81
2022/06/24 04:11:29;;;;;;;6.82;1.90;;;;;;;19.20;62.08;99088.59;10441019;28;20933;-81
2022/06/24 04:16:31;;;;;;;6.60;1.80;;;;;;;19.25;62.78;99086.28;10440495;28;20081;-81
2022/06/24 04:21:33;;;;;;;4.85;1.90;;;;;;;19.35;62.06;99097.56;10440321;28;20053;-81
2022/06/24 04:26:35;;;;;;;6.60;1.95;;;;;;;19.35;62.19;99086.94;10421617;28;20044;-81
2022/06/24 04:31:36;;;;;;;5.50;2.15;;;;;;;19.26;62.49;99087.09;10422445;28;20171;-81
2022/06/24 04:36:38;;;;;;;8.05;2.15;;;;;;;19.21;62.91;99097.38;10422769;28;20537;-81
2022/06/24 04:41:40;;;;;;;7.07;2.00;;;;;;;19.01;63.40;99110.09;10423216;28;20053;-81
2022/06/24 04:46:42;;;;;;;6.47;2.15;;;;;;;18.98;63.24;99110.44;10438121;28;20469;-82
2022/06/24 04:51:44;;;;;;;6.30;1.85;;;;;;;19.05;63.44;99106.19;10422258;28;20128;-81
2022/06/24 04:56:45;;;;;;;6.90;2.00;;;;;;;19.20;62.90;99112.47;10421365;28;20508;-81
2022/06/24 05:01:47;;;;;;;5.47;1.90;;;;;;;19.67;62.62;99106.44;10421068;28;20102;-81
2022/06/24 05:06:49;;;;;;;6.03;1.83;;;;;;;20.00;61.88;99108.03;10420836;28;20057;-81
2022/06/24 05:11:51;;;;;;;5.88;1.98;;;;;;;20.08;61.64;99108.00;10436907;28;20056;-81
2022/06/24 05:16:53;;;;;;;4.80;1.85;;;;;;;20.23;60.94;99101.78;10418834;28;20110;-81
2022/06/24 05:21:55;;;;;;;4.45;1.88;;;;;;;20.24;60.82;99110.59;10421873;28;20140;-81
2022/06/24 05:26:57;;;;;;;6.28;1.88;;;;;;;20.09;60.67;99102.53;10421271;28;20084;-81
2022/06/24 05:31:59;;;;;;;5.45;1.85;;;;;;;20.08;60.42;99105.34;10418758;28;20064;-81
2022/06/24 05:37:02;;;;;;;6.85;2.15;;;;;;;20.07;60.01;99109.03;10419732;28;20048;-81
2022/06/24 05:42:04;;;;;;;4.10;1.75;;;;;;;20.02;60.40;99104.22;10418265;28;20461;-81
2022/06/24 05:47:06;;;;;;;8.90;2.10;;;;;;;20.13;60.04;99101.16;10437280;28;20044;-81
2022/06/24 05:52:08;;;;;;;7.20;1.90;;;;;;;20.19;59.94;99103.13;10417326;28;20049;-81
2022/06/24 05:57:10;;;;;;;8.73;2.00;;;;;;;20.25;59.83;99102.44;10419334;28;20084;-81
2022/06/24 06:02:11;;;;;;;7.43;2.40;;;;;;;20.14;59.82;99110.81;10418929;28;20067;-81
2022/06/24 06:07:13;;;;;;;6.95;2.00;;;;;;;20.19;60.12;99100.47;10435745;28;20087;-81
2022/06/24 06:12:15;;;;;;;6.60;2.00;;;;;;;20.04;59.71;99082.81;10437002;28;20134;-81
2022/06/24 06:17:17;;;;;;;5.95;1.88;;;;;;;20.20;59.06;99083.56;10418830;28;20045;-81
2022/06/24 06:22:18;;;;;;;8.75;2.13;;;;;;;20.41;59.06;99087.44;10431195;28;20136;-82
2022/06/24 06:27:20;;;;;;;7.15;2.55;;;;;;;20.81;58.38;99082.75;10423265;28;20048;-81
2022/06/24 06:32:23;;;;;;;6.57;1.75;;;;;;;21.20;57.69;99076.44;10418193;28;20557;-81
2022/06/24 06:37:27;;;;;;;6.57;2.20;;;;;;;21.11;57.68;99066.91;10417800;28;20067;-82
2022/06/24 06:42:30;;;;;;;5.78;2.20;;;;;;;21.17;57.00;99060.88;10416082;28;20060;-81
2022/06/24 06:47:39;;;;;;;6.65;2.30;;;;;;;21.08;57.97;99052.97;10416468;28;20049;-81
2022/06/24 06:52:44;;;;;;;6.07;2.07;;;;;;;21.25;57.61;99066.09;10415321;28;20052;-81
2022/06/24 06:57:47;;;;;;;11.43;2.15;;;;;;;21.59;57.13;99061.13;10415311;28;20088;-80
2022/06/24 07:02:55;;;;;;;5.43;1.95;;;;;;;21.77;56.37;99051.78;10413420;28;20064;-82
2022/06/24 07:07:58;;;;;;;6.53;2.05;;;;;;;22.15;55.20;99052.50;10414642;28;20510;-82
2022/06/24 07:13:02;;;;;;;6.65;2.00;;;;;;;21.95;55.20;99053.22;10415549;28;20118;-82
2022/06/24 07:18:04;;;;;;;6.90;2.30;;;;;;;21.78;55.41;99048.09;10414309;28;20718;-83
2022/06/24 07:23:09;;;;;;;6.72;2.22;;;;;;;21.66;55.68;99040.78;10429970;28;20060;-84
2022/06/24 07:28:11;;;;;;;9.32;2.45;;;;;;;21.62;55.72;99042.16;10417311;28;20060;-83
2022/06/24 07:33:14;;;;;;;9.77;2.70;;;;;;;21.34;56.78;99043.75;10431795;28;20102;-84
2022/06/24 07:38:20;;;;;;;7.50;2.20;;;;;;;21.32;56.99;99046.59;10432305;28;20072;-84
2022/06/24 07:43:28;;;;;;;7.38;2.08;;;;;;;21.20;56.25;99040.03;10406690;28;20564;-84
2022/06/24 07:48:38;;;;;;;5.13;2.10;;;;;;;21.36;55.30;99045.25;10425139;28;20490;-84
2022/06/24 07:53:44;;;;;;;5.47;2.10;;;;;;;21.55;54.96;99047.38;10433606;28;20049;-83
2022/06/24 07:58:51;;;;;;;3.30;1.60;;;;;;;21.45;54.47;99043.31;10416683;28;20422;-83
2022/06/24 08:03:53;;;;;;;4.70;2.05;;;;;;;21.63;54.29;99047.28;10433480;28;20149;-83
2022/06/24 08:08:55;;;;;;;4.50;1.83;;;;;;;21.84;53.84;99038.56;10432507;28;20426;-83
2022/06/24 08:13:57;;;;;;;7.63;1.90;;;;;;;22.09;53.14;99042.59;10415305;28;20049;-84
2022/06/24 08:18:59;;;;;;;3.55;1.70;;;;;;;22.19;52.80;99045.78;10432259;28;20183;-84
2022/06/24 08:24:01;;;;;;;4.95;1.50;;;;;;;22.08;53.34;99042.78;10414452;28;20080;-85
2022/06/24 08:29:03;;;;;;;3.50;1.40;;;;;;;22.55;52.68;99035.97;10434074;28;20403;-84
2022/06/24 08:34:05;;;;;;;4.93;1.52;;;;;;;22.68;52.10;99036.09;10434653;28;20111;-85
2022/06/24 08:39:07;;;;;;;2.85;1.30;;;;;;;22.54;52.51;99042.28;10419422;28;20952;-84
2022/06/24 08:44:09;;;;;;;2.50;1.23;;;;;;;22.31;52.51;99046.94;10422300;28;20454;-85
2022/06/24 08:49:11;;;;;;;2.33;1.40;;;;;;;22.39;52.83;99038.03;10422494;28;20053;-84
2022/06/24 08:54:16;;;;;;;3.55;1.20;;;;;;;22.78;52.12;99040.31;10418340;28;20986;-85
2022/06/24 08:59:28;;;;;;;3.63;1.30;;;;;;;22.58;52.61;99034.75;10423648;28;20053;-84
2022/06/24 09:04:35;;;;;;;1.98;1.20;;;;;;;22.91;51.80;99043.09;10434440;28;20506;-83
2022/06/24 09:09:39;;;;;;;3.42;1.27;;;;;;;23.29;51.19;99042.59;10411256;28;20048;-84
2022/06/24 09:14:48;;;;;;;2.42;1.50;;;;;;;23.73;49.86;99042.31;10433557;28;20145;-84
2022/06/24 09:20:10;;;;;;;2.42;1.30;;;;;;;24.39;48.47;99031.94;10421237;28;20052;-84
2022/06/24 09:25:51;;;;;;;2.60;1.10;;;;;;;25.33;45.56;99028.94;10423171;28;20059;-85
2022/06/24 09:31:12;;;;;;;1.77;1.20;;;;;;;25.66;44.69;99024.41;10394981;28;20565;-84
2022/06/24 09:36:16;;;;;;;5.97;1.30;;;;;;;25.79;45.02;99023.53;10394208;28;20052;-84
2022/06/24 09:41:23;;;;;;;3.88;1.30;;;;;;;25.37;45.23;99030.22;10395230;28;20045;-84
2022/06/24 09:46:32;;;;;;;4.80;1.60;;;;;;;25.55;44.58;99033.06;10394530;28;20041;-84
2022/06/24 09:51:36;;;;;;;;;;;;;;;25.38;45.48;99039.91;10394548;28;20092;-85
2022/06/24 09:56:40;;;;;;;3.20;1.30;;;;;;;26.07;44.78;99026.75;10391432;28;20011;-86
2022/06/24 10:01:42;;;;;;;2.92;1.40;;;;;;;26.08;43.62;99022.22;10393496;28;20088;-86
2022/06/24 10:06:49;;;;;;;3.00;1.50;;;;;;;25.81;43.48;99030.31;10391898;28;20072;-86
2022/06/24 10:11:52;;;;;;;3.75;1.40;;;;;;;25.09;44.69;99048.31;10393461;28;20057;-86
2022/06/24 10:16:56;;;;;;;2.78;1.40;;;;;;;25.16;44.98;99041.13;10393543;28;20144;-85
2022/06/24 10:21:58;;;;;;;2.30;1.40;;;;;;;25.92;43.82;99045.75;10391568;28;20053;-86
2022/06/24 10:27:01;;;;;;;3.67;1.52;;;;;;;27.33;41.07;99023.91;10394040;28;20133;-85
2022/06/24 10:32:05;;;;;;;4.63;1.33;;;;;;;27.24;40.43;99024.41;10428094;28;20134;-85
2022/06/24 10:37:13;;;;;;;5.25;1.40;;;;;;;27.99;38.79;99028.59;10420720;28;20052;-85
2022/06/24 10:42:20;;;;;;;5.63;1.20;;;;;;;27.26;39.93;99025.81;10419964;28;20049;-85
2022/06/24 10:47:27;;;;;;;2.75;1.17;;;;;;;26.44;41.30;99027.81;10419729;28;20059;-85
2022/06/24 10:52:39;;;;;;;1.90;1.23;;;;;;;25.82;43.46;99056.06;10420610;28;20131;-85
2022/06/24 10:57:46;;;;;;;2.80;1.30;;;;;;;25.63;44.45;99051.56;10419784;28;20056;-86
2022/06/24 11:02:53;;;;;;;2.65;1.13;;;;;;;25.12;44.97;99047.91;10417734;28;20049;-85
2022/06/24 11:07:55;;;;;;;4.40;1.40;;;;;;;25.18;45.53;99047.09;10418062;28;20453;-86
2022/06/24 11:13:02;;;;;;;3.05;1.20;;;;;;;25.85;44.02;99049.47;10419170;28;20129;-85
2022/06/24 11:18:08;;;;;;;1.75;1.10;;;;;;;25.86;43.52;99041.22;10417078;28;20045;-85
2022/06/24 11:23:12;;;;;;;1.95;1.20;;;;;;;26.03;43.51;99046.97;10417926;28;20053;-85
2022/06/24 11:28:22;;;;;;;2.28;1.30;;;;;;;26.07;42.25;99031.28;10428461;28;20089;-85
2022/06/24 11:33:24;;;;;;;3.35;1.30;;;;;;;26.06;42.05;99026.97;10416361;28;20465;-85
2022/06/24 11:38:26;;;;;;;2.08;1.10;;;;;;;26.43;41.47;99023.47;10413842;28;20134;-85
2022/06/24 11:43:28;;;;;;;2.38;1.30;;;;;;;26.73;39.87;99010.34;10415722;28;20057;-85
2022/06/24 11:48:30;;;;;;;2.85;1.30;;;;;;;26.53;39.85;99011.25;10416242;28;20065;-85
2022/06/24 11:53:32;;;;;;;2.63;1.20;;;;;;;26.28;39.80;99012.25;10433388;28;20498;-85
2022/06/24 11:58:37;;;;;;;2.58;1.40;;;;;;;26.57;39.98;99000.94;10413953;28;20098;-86
2022/06/24 12:03:39;;;;;;;3.28;1.23;;;;;;;27.07;40.06;99024.09;10414010;28;20057;-85
2022/06/24 12:08:41;;;;;;;3.13;1.23;;;;;;;27.08;39.03;99020.38;10416604;28;20409;-85
2022/06/24 12:14:06;;;;;;;3.58;1.17;;;;;;;27.13;38.76;99012.50;10416616;28;20525;-84
2022/06/24 12:19:10;;;;;;;2.42;1.20;;;;;;;27.13;38.46;99012.50;10423075;28;20056;-83
2022/06/24 12:24:24;;;;;;;3.13;1.20;;;;;;;27.25;38.58;98989.28;10440763;28;20049;-83
2022/06/24 12:29:30;;;;;;;3.80;1.40;;;;;;;27.03;39.31;98985.34;10413465;28;20079;-86
2022/06/24 12:34:38;;;;;;;3.25;1.40;;;;;;;27.04;36.63;98972.72;10439225;28;20045;-85
2022/06/24 12:39:47;;;;;;;2.50;1.27;;;;;;;26.45;37.49;98971.28;10422692;28;20148;-83
2022/06/24 12:44:55;;;;;;;;;;;;;;;26.64;39.00;98956.97;10440007;28;20057;-84
2022/06/24 12:55:18;;;;;;;2.95;1.40;;;;;;;27.31;37.79;98956.16;10436564;28;20410;-84
2022/06/24 13:00:22;;;;;;;3.63;1.40;;;;;;;27.78;36.94;98945.75;10418010;28;20490;-83
2022/06/24 13:05:31;;;;;;;3.20;1.60;;;;;;;27.68;36.72;98948.13;10418257;28;20134;-83
2022/06/24 13:10:48;;;;;;;;;;;;;;;27.29;37.78;98947.53;10438453;28;20141;-83
2022/06/24 13:15:53;;;;;;;3.22;1.50;;;;;;;27.67;36.28;98933.06;10416086;28;21063;-85
2022/06/24 13:20:59;;;;;;;2.95;1.50;;;;;;;26.99;37.63;98935.00;10415146;28;20057;-86
2022/06/24 13:26:02;;;;;;;2.53;1.33;;;;;;;27.06;38.46;98930.38;10417452;28;20142;-85
2022/06/24 13:31:06;;;;;;;2.60;1.45;;;;;;;27.29;36.85;98936.78;10420127;28;20076;-86
2022/06/24 13:36:08;;;;;;;3.80;1.48;;;;;;;27.36;37.43;98921.41;10418309;28;20366;-86
2022/06/24 13:41:10;;;;;;;2.90;1.67;;;;;;;27.65;36.19;98927.09;10419682;28;20060;-86
2022/06/24 13:46:15;;;;;;;2.92;1.42;;;;;;;27.82;36.80;98906.63;10419354;28;20656;-86
2022/06/24 13:51:21;;;;;;;2.20;1.50;;;;;;;28.08;36.30;98907.09;10420180;28;20061;-86
2022/06/24 13:56:26;;;;;;;3.30;1.60;;;;;;;28.05;36.07;98904.06;10418405;28;20181;-86
2022/06/24 14:01:30;;;;;;;3.08;1.40;;;;;;;27.86;36.94;98911.34;10418057;28;20983;-86
2022/06/24 14:06:35;;;;;;;2.80;1.30;;;;;;;27.93;36.51;98914.72;10409556;28;20052;-85
2022/06/24 14:11:42;;;;;;;2.28;1.35;;;;;;;27.95;36.76;98919.91;10419115;28;20052;-87
2022/06/24 14:16:44;;;;;;;2.22;1.50;;;;;;;27.66;37.50;98926.03;10415514;28;20138;-86
2022/06/24 14:22:08;;;;;;;2.80;1.50;;;;;;;27.08;39.15;98945.22;10418264;28;20059;-86
2022/06/24 14:27:18;;;;;;;3.78;1.60;;;;;;;26.58;40.57;98959.69;10417729;28;20490;-86
2022/06/24 14:32:22;;;;;;;20.13;5.10;;;;;;;25.95;47.30;98979.38;10417591;28;20832;-85
2022/06/24 14:42:50;;;;;;;8.38;2.50;;;;;;;21.45;56.24;98966.19;10430882;28;20088;-85
2022/06/24 14:47:53;;;;;;;6.03;2.70;;;;;;;21.02;58.27;98984.56;10434090;28;20092;-84
2022/06/24 14:53:14;;;;;;;6.22;2.67;;;;;;;21.15;58.82;98999.84;10432657;28;20502;-84
2022/06/24 14:58:17;;;;;;;5.82;2.30;;;;;;;20.99;57.36;98998.19;10414314;28;20115;-84
2022/06/24 15:03:19;;;;;;;5.50;2.30;;;;;;;20.95;58.82;98999.56;10415468;28;20462;-83
2022/06/24 15:08:30;;;;;;;5.55;2.03;;;;;;;21.16;58.10;98995.38;10414773;28;20071;-80
2022/06/24 15:13:33;;;;;;;4.35;2.35;;;;;;;21.42;59.77;98993.97;10424372;28;20514;-84
2022/06/24 15:18:38;;;;;;;3.58;1.88;;;;;;;21.58;58.91;99011.56;10412652;28;20136;-82
2022/06/24 15:23:44;;;;;;;3.72;2.25;;;;;;;21.64;60.86;99008.22;10401422;28;20091;-84
2022/06/24 15:28:46;;;;;;;5.35;2.33;;;;;;;21.68;60.65;99015.63;10409554;28;20064;-84
2022/06/24 15:33:54;;;;;;;5.93;2.50;;;;;;;21.77;60.47;99016.34;10397988;28;20045;-85
2022/06/24 15:38:56;;;;;;;5.68;2.22;;;;;;;21.71;59.85;99009.09;10414268;28;20514;-83
2022/06/24 15:43:59;;;;;;;3.83;2.08;;;;;;;21.45;59.58;99011.41;10415882;28;20056;-83
2022/06/24 15:49:00;;;;;;;4.93;2.17;;;;;;;21.11;60.88;99011.06;10422086;28;20150;-83
2022/06/24 15:54:09;;;;;;;5.50;2.65;;;;;;;21.31;61.62;99017.50;10426633;28;20524;-84
2022/06/24 15:59:29;;;;;;;7.65;2.40;;;;;;;20.78;62.05;99024.63;10425424;28;20061;-84
2022/06/24 16:04:31;;;;;;;6.05;2.50;;;;;;;20.76;62.55;99058.53;10408853;28;20080;-84
2022/06/24 16:09:33;;;;;;;3.95;2.28;;;;;;;20.17;62.43;99072.47;10407475;28;20166;-83
2022/06/24 16:14:42;;;;;;;6.22;2.35;;;;;;;19.82;63.79;99070.28;10421064;28;20049;-84
2022/06/24 16:19:47;;;;;;;8.50;2.80;;;;;;;19.95;63.96;99075.88;10407977;28;20084;-83
2022/06/24 16:30:31;;;;;;;14.45;4.25;;;;;;;19.84;65.94;99124.84;10421469;28;20081;-84
2022/06/24 16:35:36;;;;;;;9.98;3.33;;;;;;;19.88;64.99;99114.72;10409039;28;20566;-84
2022/06/24 16:40:38;;;;;;;6.82;2.10;;;;;;;19.82;62.50;99118.06;10424239;28;20056;-83
2022/06/24 16:45:52;;;;;;;5.22;2.60;;;;;;;19.56;64.03;99136.81;10423838;28;20417;-84
2022/06/24 16:50:54;;;;;;;6.28;2.50;;;;;;;19.51;63.57;99152.38;10405021;28;20056;-84
2022/06/24 16:56:04;;;;;;;8.45;3.10;;;;;;;19.61;64.67;99155.69;10423227;28;20045;-85
2022/06/24 17:01:15;;;;;;;5.70;2.30;;;;;;;18.70;64.56;99153.28;10407528;28;20057;-84
2022/06/24 17:06:16;;;;;;;10.18;3.50;;;;;;;18.05;66.88;99153.00;10400186;28;20049;-83
2022/06/24 17:11:18;;;;;;;8.40;3.90;;;;;;;18.09;69.51;99166.75;10402415;28;20136;-82
2022/06/24 17:16:20;;;;;;;7.38;4.35;;;;;;;18.60;69.56;99164.00;10399729;28;20934;-83
2022/06/24 17:21:30;;;;;;;7.13;3.78;;;;;;;18.87;70.21;99157.63;10400811;28;20075;-83
2022/06/24 17:26:51;;;;;;;8.02;3.45;;;;;;;19.03;69.15;99157.69;10403118;28;20060;-84
2022/06/24 17:31:54;;;;;;;10.05;3.80;;;;;;;19.15;68.37;99159.84;10419124;28;20061;-85
2022/06/24 17:36:55;;;;;;;10.90;3.42;;;;;;;19.15;67.77;99154.56;10424662;28;20053;-85
2022/06/24 17:41:58;;;;;;;8.90;3.40;;;;;;;19.24;68.09;99161.50;10423531;28;20057;-85
2022/06/24 17:47:01;;;;;;;8.73;3.70;;;;;;;19.43;67.71;99168.31;10406479;28;20099;-84
2022/06/24 17:52:04;;;;;;;6.70;3.50;;;;;;;19.46;67.99;99163.47;10418432;28;20726;-84
2022/06/24 17:57:06;;;;;;;10.32;5.03;;;;;;;19.68;67.42;99174.41;10408221;28;20045;-83
2022/06/24 18:02:19;;;;;;;9.60;4.38;;;;;;;19.59;67.97;99183.38;10428752;28;20187;-83
2022/06/24 18:07:22;;;;;;;14.52;4.78;;;;;;;19.53;67.76;99186.69;10429341;28;20049;-85
2022/06/24 18:12:25;;;;;;;11.68;4.53;;;;;;;19.48;67.89;99203.94;10416471;28;20118;-85
2022/06/24 18:17:29;;;;;;;8.65;4.20;;;;;;;19.48;67.88;99207.59;10416295;28;20045;-84
2022/06/24 18:22:31;;;;;;;6.40;3.50;;;;;;;19.44;67.58;99215.03;10418198;28;20056;-85
2022/06/24 18:27:35;;;;;;;8.20;4.15;;;;;;;19.65;68.04;99219.84;10418647;28;20139;-84
2022/06/24 18:32:38;;;;;;;7.43;4.57;;;;;;;19.73;67.60;99223.31;10432070;28;20060;-84
2022/06/24 18:37:40;;;;;;;6.90;4.18;;;;;;;19.81;67.53;99227.78;10416571;28;20098;-84
2022/06/24 18:42:51;;;;;;;10.93;5.03;;;;;;;19.66;67.36;99234.78;10416391;28;20053;-84
2022/06/24 18:47:53;;;;;;;10.00;5.20;;;;;;;19.56;67.80;99237.59;10414773;28;20127;-84
2022/06/24 18:52:59;;;;;;;9.85;6.18;;;;;;;19.71;67.72;99241.22;10430857;28;20049;-83
2022/06/24 18:58:03;;;;;;;10.40;5.18;;;;;;;19.91;67.30;99239.94;10415148;28;20639;-86
2022/06/24 19:03:17;;;;;;;8.15;4.80;;;;;;;20.00;67.38;99240.75;10434446;28;20057;-86
2022/06/24 19:08:19;;;;;;;7.93;5.28;;;;;;;19.97;67.18;99247.22;10416205;28;20083;-85
2022/06/24 19:13:27;;;;;;;6.28;3.92;;;;;;;19.76;67.59;99251.34;10415291;28;20079;-85
2022/06/24 19:23:50;;;;;;;10.20;4.30;;;;;;;19.72;67.55;99273.91;10428715;28;20053;-84
2022/06/24 19:28:56;;;;;;;12.10;5.78;;;;;;;19.91;67.80;99279.72;10412774;28;20464;-81
2022/06/24 19:34:00;;;;;;;10.68;5.53;;;;;;;19.91;67.40;99281.59;10405371;28;20407;-81
2022/06/24 19:39:04;;;;;;;12.73;6.75;;;;;;;19.96;67.37;99288.03;10387124;28;20212;-81
2022/06/24 19:44:11;;;;;;;16.13;7.30;;;;;;;20.01;67.46;99295.50;10389719;28;20057;-79
2022/06/24 19:49:15;;;;;;;14.73;6.45;;;;;;;19.96;67.55;99296.00;10393543;28;20134;-81
2022/06/24 19:54:21;;;;;;;17.75;7.72;;;;;;;19.99;67.33;99295.66;10388718;28;20135;-81
2022/06/24 19:59:23;;;;;;;15.55;7.63;;;;;;;19.82;66.76;99294.00;10384002;28;20056;-78
2022/06/24 20:09:47;;;;;;;10.27;5.40;;;;;;;19.48;67.43;99319.81;10389895;28;20057;-81
2022/06/24 20:14:50;;;;;;;11.13;5.55;;;;;;;19.53;67.30;99322.78;10391728;28;20392;-81
2022/06/24 20:19:53;;;;;;;10.48;5.10;;;;;;;19.54;67.41;99324.47;10391796;28;20053;-81
2022/06/24 20:24:55;;;;;;;8.80;4.82;;;;;;;19.46;68.27;99335.88;10389896;28;20104;-81
2022/06/24 20:29:57;;;;;;;10.32;3.63;;;;;;;19.48;68.18;99331.22;10390562;28;20148;-80
2022/06/24 20:34:59;;;;;;;7.05;2.92;;;;;;;19.48;67.50;99331.22;10393491;28;20053;-81
2022/06/24 20:40:01;;;;;;;7.47;2.70;;;;;;;19.44;67.49;99334.38;10402086;28;20053;-80
2022/06/24 20:45:04;;;;;;;8.60;3.75;;;;;;;19.45;67.26;99334.22;10397376;28;20151;-81
2022/06/24 20:50:06;;;;;;;5.75;2.85;;;;;;;19.38;67.79;99329.72;10396540;28;20450;-81
2022/06/24 20:55:09;;;;;;;9.18;2.90;;;;;;;19.32;67.65;99336.50;10397729;28;20057;-81
2022/06/24 21:00:11;;;;;;;8.15;2.85;;;;;;;19.25;67.40;99351.41;10396983;28;21098;-81
2022/06/24 21:05:13;;;;;;;5.60;2.78;;;;;;;19.22;67.35;99351.72;10398367;28;20065;-81
2022/06/24 21:10:14;;;;;;;5.50;2.35;;;;;;;19.07;67.03;99353.31;10396215;28;20164;-81
2022/06/24 21:15:16;;;;;;;8.25;2.05;;;;;;;18.85;67.15;99350.38;10398122;28;20068;-81
2022/06/24 21:20:18;;;;;;;4.13;1.80;;;;;;;18.77;66.87;99352.97;10397186;28;20144;-81
2022/06/24 21:25:20;;;;;;;5.85;1.88;;;;;;;18.67;67.25;99351.25;10397501;28;20148;-81
2022/06/24 21:30:43;;;;;;;6.97;2.25;;;;;;;18.50;67.65;99344.19;10395200;28;20111;-80
2022/06/24 21:35:45;;;;;;;8.82;1.98;;;;;;;18.48;67.76;99351.47;10397595;28;20507;-81
2022/06/24 21:40:48;;;;;;;8.18;2.17;;;;;;;18.46;67.88;99352.63;10378929;28;20502;-80
2022/06/24 21:45:49;;;;;;;5.20;2.08;;;;;;;18.46;67.38;99353.44;10395413;28;20057;-81
2022/06/24 21:50:51;;;;;;;8.40;2.08;;;;;;;18.38;67.27;99350.72;10379941;28;20076;-81
2022/06/24 21:55:53;;;;;;;4.40;2.08;;;;;;;18.38;67.45;99355.22;10376492;28;20710;-81
2022/06/24 22:00:55;;;;;;;22.00;3.28;;;;;;;18.33;67.21;99353.03;10397272;28;20935;-80
2022/06/24 22:05:57;;;;;;;5.82;2.42;;;;;;;18.30;67.46;99347.22;10377941;28;20055;-81
2022/06/24 22:10:58;;;;;;;7.55;2.28;;;;;;;18.25;67.33;99341.53;10378920;28;20163;-81
2022/06/24 22:16:00;;;;;;;6.32;2.40;;;;;;;18.19;67.70;99339.47;10379143;28;20080;-81
2022/06/24 22:21:02;;;;;;;6.45;2.45;;;;;;;18.12;67.42;99338.41;10392887;28;20487;-80
2022/06/24 22:26:05;;;;;;;8.95;2.60;;;;;;;18.03;67.21;99344.66;10377698;28;20060;-81
2022/06/24 22:31:07;;;;;;;5.55;2.60;;;;;;;17.98;67.70;99345.09;10399877;28;20076;-80
2022/06/24 22:36:09;;;;;;;11.45;2.45;;;;;;;17.78;68.08;99355.03;10419864;28;20060;-81
2022/06/24 22:41:13;;;;;;;6.22;2.88;;;;;;;17.78;67.95;99362.13;10416989;28;20084;-81
2022/06/24 22:46:15;;;;;;;8.02;2.90;;;;;;;17.72;68.00;99360.91;10418639;28;20071;-81
2022/06/24 22:51:17;;;;;;;7.03;3.03;;;;;;;17.55;67.63;99367.00;10419269;28;20163;-81
2022/06/24 22:56:20;;;;;;;15.73;4.00;;;;;;;17.21;68.11;99373.88;10418143;28;20163;-81
2022/06/24 23:01:22;;;;;;;10.98;2.75;;;;;;;17.08;68.40;99372.53;10418423;28;20499;-80
2022/06/24 23:06:23;;;;;;;12.40;2.95;;;;;;;17.10;68.96;99379.31;10436440;28;20141;-81
2022/06/24 23:11:25;;;;;;;5.22;3.22;;;;;;;17.11;68.66;99377.53;10418596;28;20056;-81
2022/06/24 23:16:27;;;;;;;8.90;3.00;;;;;;;17.13;68.46;99381.69;10416611;28;20510;-81
2022/06/24 23:21:29;;;;;;;6.93;3.33;;;;;;;17.08;68.81;99381.28;10433289;28;20510;-80
2022/06/24 23:26:31;;;;;;;7.60;3.03;;;;;;;17.09;68.67;99393.53;10418140;28;20047;-81
2022/06/24 23:31:36;;;;;;;16.48;3.15;;;;;;;16.75;68.13;99400.34;10416924;28;20137;-81
2022/06/24 23:36:38;;;;;;;11.55;3.80;;;;;;;16.64;68.94;99405.75;10416861;28;20045;-81
2022/06/24 23:41:39;;;;;;;8.55;4.55;;;;;;;16.51;68.93;99407.91;10417978;28;20084;-81
2022/06/24 23:46:41;;;;;;;12.07;2.97;;;;;;;16.55;69.38;99412.72;10418306;28;20558;-80
2022/06/24 23:51:43;;;;;;;8.30;3.40;;;;;;;16.68;68.76;99412.44;10416454;28;20102;-80
2022/06/24 23:56:45;;;;;;;9.20;2.67;;;;;;;16.70;69.40;99416.59;10414959;28;20148;-80
